sensor_id;sensor_type;location;lat;lon;timestamp;pressure;altitude;pressure_sealevel;temperature;humidity
28448;BME280;15675;52.870;-1.416;2023-03-13T00:00:53;98483.34;;;12.56;100.00
28448;BME280;15675;52.870;-1.416;2023-03-13T00:03:19;98472.50;;;12.45;100.00
28448;BME280;15675;52.870;-1.416;2023-03-13T00:05:45;98491.75;;;12.63;100.00
28448;BME280;15675;52.870;-1.416;2023-03-13T00:08:10;98482.44;;;12.57;100.00
28448;BME280;15675;52.870;-1.416;2023-03-13T00:10:37;98478.25;;;12.75;100.00
28448;BME280;15675;52.870;-1.416;2023-03-13T00:13:03;98488.59;;;12.77;100.00
28448;BME280;15675;52.870;-1.416;2023-03-13T00:15:29;98483.31;;;12.78;100.00
28448;BME280;15675;52.870;-1.416;2023-03-13T00:17:54;98493.06;;;12.73;100.00
28448;BME280;15675;52.870;-1.416;2023-03-13T00:20:20;98478.97;;;12.79;100.00
28448;BME280;15675;52.870;-1.416;2023-03-13T00:22:45;98501.03;;;12.91;100.00
28448;BME280;15675;52.870;-1.416;2023-03-13T00:25:11;98491.69;;;13.07;100.00
28448;BME280;15675;52.870;-1.416;2023-03-13T00:27:36;98490.97;;;13.04;100.00
28448;BME280;15675;52.870;-1.416;2023-03-13T00:30:02;98491.22;;;12.98;100.00
28448;BME280;15675;52.870;-1.416;2023-03-13T00:32:27;98494.97;;;13.12;100.00
28448;BME280;15675;52.870;-1.416;2023-03-13T00:34:53;98474.91;;;12.94;100.00
28448;BME280;15675;52.870;-1.416;2023-03-13T00:37:18;98468.31;;;13.06;100.00
28448;BME280;15675;52.870;-1.416;2023-03-13T00:39:44;98465.22;;;13.18;100.00
28448;BME280;15675;52.870;-1.416;2023-03-13T00:42:09;98463.38;;;13.20;100.00
28448;BME280;15675;52.870;-1.416;2023-03-13T00:44:35;98450.63;;;13.35;100.00
28448;BME280;15675;52.870;-1.416;2023-03-13T00:47:00;98441.09;;;13.13;100.00
28448;BME280;15675;52.870;-1.416;2023-03-13T00:49:26;98418.78;;;13.07;100.00
28448;BME280;15675;52.870;-1.416;2023-03-13T00:51:52;98432.03;;;13.42;100.00
28448;BME280;15675;52.870;-1.416;2023-03-13T00:54:17;98432.88;;;13.22;100.00
28448;BME280;15675;52.870;-1.416;2023-03-13T00:56:43;98434.25;;;13.31;100.00
28448;BME280;15675;52.870;-1.416;2023-03-13T00:59:08;98435.75;;;13.16;100.00
28448;BME280;15675;52.870;-1.416;2023-03-13T01:01:35;98424.75;;;13.09;100.00
28448;BME280;15675;52.870;-1.416;2023-03-13T01:04:07;98422.13;;;13.09;100.00
28448;BME280;15675;52.870;-1.416;2023-03-13T01:06:35;98433.44;;;13.10;100.00
28448;BME280;15675;52.870;-1.416;2023-03-13T01:09:03;98425.53;;;12.91;100.00
28448;BME280;15675;52.870;-1.416;2023-03-13T01:11:31;98423.91;;;13.09;100.00
28448;BME280;15675;52.870;-1.416;2023-03-13T01:13:59;98437.66;;;13.12;100.00
28448;BME280;15675;52.870;-1.416;2023-03-13T01:16:27;98417.78;;;12.89;100.00
28448;BME280;15675;52.870;-1.416;2023-03-13T01:18:54;98425.53;;;13.11;100.00
28448;BME280;15675;52.870;-1.416;2023-03-13T01:21:21;98444.38;;;13.39;100.00
28448;BME280;15675;52.870;-1.416;2023-03-13T01:23:48;98426.84;;;13.22;100.00
28448;BME280;15675;52.870;-1.416;2023-03-13T01:26:14;98401.25;;;13.11;100.00
28448;BME280;15675;52.870;-1.416;2023-03-13T01:28:39;98380.31;;;13.33;100.00
28448;BME280;15675;52.870;-1.416;2023-03-13T01:31:19;98348.88;;;13.38;100.00
28448;BME280;15675;52.870;-1.416;2023-03-13T01:33:46;98342.22;;;13.11;100.00
28448;BME280;15675;52.870;-1.416;2023-03-13T01:36:13;98312.47;;;12.97;100.00
28448;BME280;15675;52.870;-1.416;2023-03-13T01:38:39;98311.41;;;13.01;100.00
28448;BME280;15675;52.870;-1.416;2023-03-13T01:41:06;98331.78;;;13.11;100.00
28448;BME280;15675;52.870;-1.416;2023-03-13T01:43:34;98336.63;;;13.00;100.00
28448;BME280;15675;52.870;-1.416;2023-03-13T01:48:44;98314.03;;;13.01;100.00
28448;BME280;15675;52.870;-1.416;2023-03-13T01:51:32;98293.34;;;12.98;100.00
28448;BME280;15675;52.870;-1.416;2023-03-13T01:54:03;98281.28;;;12.76;100.00
28448;BME280;15675;52.870;-1.416;2023-03-13T01:59:48;98294.78;;;12.84;100.00
28448;BME280;15675;52.870;-1.416;2023-03-13T02:02:16;98291.44;;;13.01;100.00
28448;BME280;15675;52.870;-1.416;2023-03-13T02:04:48;98274.59;;;12.89;100.00
28448;BME280;15675;52.870;-1.416;2023-03-13T02:07:22;98267.53;;;12.72;100.00
28448;BME280;15675;52.870;-1.416;2023-03-13T02:09:52;98265.16;;;12.87;100.00
28448;BME280;15675;52.870;-1.416;2023-03-13T02:12:30;98236.28;;;12.72;100.00
28448;BME280;15675;52.870;-1.416;2023-03-13T02:14:57;98236.88;;;12.98;100.00
28448;BME280;15675;52.870;-1.416;2023-03-13T02:17:24;98235.00;;;12.83;100.00
28448;BME280;15675;52.870;-1.416;2023-03-13T02:19:51;98211.84;;;12.95;100.00
28448;BME280;15675;52.870;-1.416;2023-03-13T02:27:45;98203.88;;;12.80;100.00
28448;BME280;15675;52.870;-1.416;2023-03-13T02:30:13;98206.75;;;12.92;100.00
28448;BME280;15675;52.870;-1.416;2023-03-13T02:32:40;98201.22;;;13.00;100.00
28448;BME280;15675;52.870;-1.416;2023-03-13T02:35:11;98199.19;;;13.07;100.00
28448;BME280;15675;52.870;-1.416;2023-03-13T02:37:40;98195.00;;;13.22;100.00
28448;BME280;15675;52.870;-1.416;2023-03-13T02:40:09;98177.50;;;12.87;100.00
28448;BME280;15675;52.870;-1.416;2023-03-13T02:42:42;98180.72;;;12.92;100.00
28448;BME280;15675;52.870;-1.416;2023-03-13T02:45:12;98178.28;;;12.89;100.00
28448;BME280;15675;52.870;-1.416;2023-03-13T02:47:37;98173.56;;;12.98;100.00
28448;BME280;15675;52.870;-1.416;2023-03-13T02:50:03;98172.13;;;13.09;100.00
28448;BME280;15675;52.870;-1.416;2023-03-13T02:52:35;98169.84;;;13.03;100.00
28448;BME280;15675;52.870;-1.416;2023-03-13T02:55:09;98148.34;;;12.98;100.00
28448;BME280;15675;52.870;-1.416;2023-03-13T02:57:36;98132.47;;;12.85;100.00
28448;BME280;15675;52.870;-1.416;2023-03-13T03:00:03;98129.69;;;12.90;100.00
28448;BME280;15675;52.870;-1.416;2023-03-13T03:02:31;98122.47;;;12.95;100.00
28448;BME280;15675;52.870;-1.416;2023-03-13T03:04:57;98142.16;;;13.01;100.00
28448;BME280;15675;52.870;-1.416;2023-03-13T03:07:22;98129.78;;;12.87;100.00
28448;BME280;15675;52.870;-1.416;2023-03-13T03:09:48;98127.91;;;12.90;100.00
28448;BME280;15675;52.870;-1.416;2023-03-13T03:12:14;98137.81;;;13.01;100.00
28448;BME280;15675;52.870;-1.416;2023-03-13T03:14:39;98126.66;;;13.17;100.00
28448;BME280;15675;52.870;-1.416;2023-03-13T03:17:05;98106.69;;;13.17;100.00
28448;BME280;15675;52.870;-1.416;2023-03-13T03:19:30;98115.63;;;13.11;100.00
28448;BME280;15675;52.870;-1.416;2023-03-13T03:21:56;98127.53;;;13.17;100.00
28448;BME280;15675;52.870;-1.416;2023-03-13T03:24:22;98117.19;;;13.16;100.00
28448;BME280;15675;52.870;-1.416;2023-03-13T03:26:47;98119.22;;;13.09;100.00
28448;BME280;15675;52.870;-1.416;2023-03-13T03:29:13;98097.41;;;13.29;100.00
28448;BME280;15675;52.870;-1.416;2023-03-13T03:31:39;98094.81;;;13.11;100.00
28448;BME280;15675;52.870;-1.416;2023-03-13T03:34:04;98107.72;;;12.95;100.00
28448;BME280;15675;52.870;-1.416;2023-03-13T03:36:29;98107.19;;;13.06;100.00
28448;BME280;15675;52.870;-1.416;2023-03-13T03:38:55;98108.25;;;13.02;100.00
28448;BME280;15675;52.870;-1.416;2023-03-13T03:41:21;98104.25;;;12.95;100.00
28448;BME280;15675;52.870;-1.416;2023-03-13T03:43:46;98066.13;;;12.94;100.00
28448;BME280;15675;52.870;-1.416;2023-03-13T03:46:14;98107.75;;;13.13;100.00
28448;BME280;15675;52.870;-1.416;2023-03-13T03:48:40;98088.38;;;13.19;100.00
28448;BME280;15675;52.870;-1.416;2023-03-13T03:51:06;98072.91;;;13.16;100.00
28448;BME280;15675;52.870;-1.416;2023-03-13T03:53:31;98081.78;;;13.11;100.00
28448;BME280;15675;52.870;-1.416;2023-03-13T03:55:57;98071.63;;;13.05;100.00
28448;BME280;15675;52.870;-1.416;2023-03-13T03:58:23;98082.69;;;13.28;100.00
28448;BME280;15675;52.870;-1.416;2023-03-13T04:00:48;98069.59;;;13.29;100.00
28448;BME280;15675;52.870;-1.416;2023-03-13T04:03:14;98053.50;;;13.04;100.00
28448;BME280;15675;52.870;-1.416;2023-03-13T04:05:41;98042.41;;;13.18;100.00
28448;BME280;15675;52.870;-1.416;2023-03-13T04:08:07;98034.50;;;13.19;100.00
28448;BME280;15675;52.870;-1.416;2023-03-13T04:10:32;98034.91;;;13.11;100.00
28448;BME280;15675;52.870;-1.416;2023-03-13T04:12:58;98030.44;;;12.96;100.00
28448;BME280;15675;52.870;-1.416;2023-03-13T04:15:24;98037.66;;;13.26;100.00
28448;BME280;15675;52.870;-1.416;2023-03-13T04:17:49;98030.47;;;13.31;100.00
28448;BME280;15675;52.870;-1.416;2023-03-13T04:20:15;98039.16;;;12.95;100.00
28448;BME280;15675;52.870;-1.416;2023-03-13T04:22:41;98034.34;;;13.05;100.00
28448;BME280;15675;52.870;-1.416;2023-03-13T04:25:07;98021.50;;;13.02;100.00
28448;BME280;15675;52.870;-1.416;2023-03-13T04:27:33;98030.84;;;13.06;100.00
28448;BME280;15675;52.870;-1.416;2023-03-13T04:29:59;98026.63;;;13.03;100.00
28448;BME280;15675;52.870;-1.416;2023-03-13T04:32:24;98012.53;;;13.25;100.00
28448;BME280;15675;52.870;-1.416;2023-03-13T04:34:50;98016.03;;;13.24;100.00
28448;BME280;15675;52.870;-1.416;2023-03-13T04:37:15;98008.63;;;13.16;100.00
28448;BME280;15675;52.870;-1.416;2023-03-13T04:39:41;98015.06;;;13.26;100.00
28448;BME280;15675;52.870;-1.416;2023-03-13T04:42:09;97986.41;;;13.26;100.00
28448;BME280;15675;52.870;-1.416;2023-03-13T04:44:35;98007.09;;;13.29;100.00
28448;BME280;15675;52.870;-1.416;2023-03-13T04:47:00;97988.09;;;13.27;100.00
28448;BME280;15675;52.870;-1.416;2023-03-13T04:49:26;97961.34;;;13.24;100.00
28448;BME280;15675;52.870;-1.416;2023-03-13T04:51:52;97970.88;;;13.07;100.00
28448;BME280;15675;52.870;-1.416;2023-03-13T04:54:17;97967.03;;;12.97;100.00
28448;BME280;15675;52.870;-1.416;2023-03-13T04:56:43;97951.50;;;12.95;100.00
28448;BME280;15675;52.870;-1.416;2023-03-13T04:59:10;97952.66;;;13.07;100.00
28448;BME280;15675;52.870;-1.416;2023-03-13T05:01:36;97946.22;;;12.97;100.00
28448;BME280;15675;52.870;-1.416;2023-03-13T05:04:02;97949.03;;;12.92;100.00
28448;BME280;15675;52.870;-1.416;2023-03-13T05:06:28;97941.59;;;13.02;100.00
28448;BME280;15675;52.870;-1.416;2023-03-13T05:08:53;97929.16;;;12.91;100.00
28448;BME280;15675;52.870;-1.416;2023-03-13T05:11:19;97940.47;;;12.90;100.00
28448;BME280;15675;52.870;-1.416;2023-03-13T05:13:44;97935.41;;;13.05;100.00
28448;BME280;15675;52.870;-1.416;2023-03-13T05:16:10;97938.34;;;12.99;100.00
28448;BME280;15675;52.870;-1.416;2023-03-13T05:18:35;97939.56;;;12.91;100.00
28448;BME280;15675;52.870;-1.416;2023-03-13T05:21:01;97940.78;;;13.02;100.00
28448;BME280;15675;52.870;-1.416;2023-03-13T05:23:27;97913.13;;;12.82;100.00
28448;BME280;15675;52.870;-1.416;2023-03-13T05:25:52;97929.75;;;12.97;100.00
28448;BME280;15675;52.870;-1.416;2023-03-13T05:28:18;97923.59;;;13.15;100.00
28448;BME280;15675;52.870;-1.416;2023-03-13T05:30:43;97904.56;;;12.97;100.00
28448;BME280;15675;52.870;-1.416;2023-03-13T05:33:09;97883.06;;;12.76;100.00
28448;BME280;15675;52.870;-1.416;2023-03-13T05:35:34;97892.00;;;12.88;100.00
28448;BME280;15675;52.870;-1.416;2023-03-13T05:38:00;97865.28;;;12.67;100.00
28448;BME280;15675;52.870;-1.416;2023-03-13T05:40:25;97873.00;;;12.68;100.00
28448;BME280;15675;52.870;-1.416;2023-03-13T05:42:51;97857.56;;;12.65;100.00
28448;BME280;15675;52.870;-1.416;2023-03-13T05:45:16;97860.84;;;12.69;100.00
28448;BME280;15675;52.870;-1.416;2023-03-13T05:47:42;97868.09;;;12.80;100.00
28448;BME280;15675;52.870;-1.416;2023-03-13T05:50:08;97878.44;;;12.81;100.00
28448;BME280;15675;52.870;-1.416;2023-03-13T05:52:33;97868.13;;;12.62;100.00
28448;BME280;15675;52.870;-1.416;2023-03-13T05:54:59;97872.25;;;12.84;100.00
28448;BME280;15675;52.870;-1.416;2023-03-13T05:57:25;97869.84;;;12.97;100.00
28448;BME280;15675;52.870;-1.416;2023-03-13T05:59:50;97858.41;;;12.66;100.00
28448;BME280;15675;52.870;-1.416;2023-03-13T06:02:16;97842.03;;;12.64;100.00
28448;BME280;15675;52.870;-1.416;2023-03-13T06:04:41;97849.47;;;12.71;100.00
28448;BME280;15675;52.870;-1.416;2023-03-13T06:07:07;97821.44;;;12.59;100.00
28448;BME280;15675;52.870;-1.416;2023-03-13T06:09:33;97825.88;;;12.39;100.00
28448;BME280;15675;52.870;-1.416;2023-03-13T06:11:58;97830.41;;;12.53;100.00
28448;BME280;15675;52.870;-1.416;2023-03-13T06:14:24;97821.22;;;12.46;100.00
28448;BME280;15675;52.870;-1.416;2023-03-13T06:16:49;97804.81;;;12.44;100.00
28448;BME280;15675;52.870;-1.416;2023-03-13T06:19:15;97813.63;;;12.59;100.00
28448;BME280;15675;52.870;-1.416;2023-03-13T06:21:41;97832.78;;;12.40;100.00
28448;BME280;15675;52.870;-1.416;2023-03-13T06:24:06;97829.66;;;12.51;100.00
28448;BME280;15675;52.870;-1.416;2023-03-13T06:26:32;97839.59;;;12.60;100.00
28448;BME280;15675;52.870;-1.416;2023-03-13T06:28:57;97835.84;;;12.49;100.00
28448;BME280;15675;52.870;-1.416;2023-03-13T06:31:23;97835.06;;;12.64;100.00
28448;BME280;15675;52.870;-1.416;2023-03-13T06:33:52;97832.16;;;12.70;100.00
28448;BME280;15675;52.870;-1.416;2023-03-13T06:36:18;97824.44;;;12.51;100.00
28448;BME280;15675;52.870;-1.416;2023-03-13T06:38:44;97839.34;;;12.65;100.00
28448;BME280;15675;52.870;-1.416;2023-03-13T06:41:09;97840.03;;;12.69;100.00
28448;BME280;15675;52.870;-1.416;2023-03-13T06:43:35;97839.19;;;12.68;100.00
28448;BME280;15675;52.870;-1.416;2023-03-13T06:46:04;97844.56;;;12.83;100.00
28448;BME280;15675;52.870;-1.416;2023-03-13T06:48:30;97844.94;;;12.57;100.00
28448;BME280;15675;52.870;-1.416;2023-03-13T06:50:55;97820.91;;;12.35;100.00
28448;BME280;15675;52.870;-1.416;2023-03-13T06:53:21;97811.56;;;12.13;100.00
28448;BME280;15675;52.870;-1.416;2023-03-13T06:55:47;97838.03;;;12.39;100.00
28448;BME280;15675;52.870;-1.416;2023-03-13T06:58:13;97847.81;;;12.34;100.00
28448;BME280;15675;52.870;-1.416;2023-03-13T07:00:39;97843.72;;;12.47;100.00
28448;BME280;15675;52.870;-1.416;2023-03-13T07:03:06;97818.47;;;12.32;100.00
28448;BME280;15675;52.870;-1.416;2023-03-13T07:05:32;97822.75;;;12.33;100.00
28448;BME280;15675;52.870;-1.416;2023-03-13T07:07:58;97847.47;;;12.41;100.00
28448;BME280;15675;52.870;-1.416;2023-03-13T07:10:23;97844.47;;;12.32;100.00
28448;BME280;15675;52.870;-1.416;2023-03-13T07:12:49;97843.09;;;12.42;100.00
28448;BME280;15675;52.870;-1.416;2023-03-13T07:15:14;97812.47;;;12.30;100.00
28448;BME280;15675;52.870;-1.416;2023-03-13T07:17:40;97827.31;;;12.10;100.00
28448;BME280;15675;52.870;-1.416;2023-03-13T07:20:06;97832.25;;;11.97;100.00
28448;BME280;15675;52.870;-1.416;2023-03-13T07:22:35;97818.56;;;11.74;100.00
28448;BME280;15675;52.870;-1.416;2023-03-13T07:25:01;97824.59;;;11.94;100.00
28448;BME280;15675;52.870;-1.416;2023-03-13T07:27:26;97823.19;;;12.23;100.00
28448;BME280;15675;52.870;-1.416;2023-03-13T07:29:52;97815.47;;;12.22;100.00
28448;BME280;15675;52.870;-1.416;2023-03-13T07:32:17;97799.56;;;11.91;100.00
28448;BME280;15675;52.870;-1.416;2023-03-13T07:34:43;97808.56;;;12.03;100.00
28448;BME280;15675;52.870;-1.416;2023-03-13T07:37:12;97796.13;;;12.10;100.00
28448;BME280;15675;52.870;-1.416;2023-03-13T07:39:38;97788.63;;;12.21;100.00
28448;BME280;15675;52.870;-1.416;2023-03-13T07:42:04;97783.31;;;12.05;100.00
28448;BME280;15675;52.870;-1.416;2023-03-13T07:44:29;97772.03;;;11.87;100.00
28448;BME280;15675;52.870;-1.416;2023-03-13T07:46:58;97793.19;;;11.99;100.00
28448;BME280;15675;52.870;-1.416;2023-03-13T07:49:24;97778.16;;;11.86;100.00
28448;BME280;15675;52.870;-1.416;2023-03-13T07:51:49;97782.03;;;11.78;100.00
28448;BME280;15675;52.870;-1.416;2023-03-13T07:54:15;97770.44;;;11.85;100.00
28448;BME280;15675;52.870;-1.416;2023-03-13T07:56:41;97782.28;;;11.90;100.00
28448;BME280;15675;52.870;-1.416;2023-03-13T07:59:07;97785.63;;;12.12;100.00
28448;BME280;15675;52.870;-1.416;2023-03-13T08:01:32;97775.78;;;11.63;100.00
28448;BME280;15675;52.870;-1.416;2023-03-13T08:03:58;97772.78;;;11.72;100.00
28448;BME280;15675;52.870;-1.416;2023-03-13T08:06:29;97759.25;;;11.46;100.00
28448;BME280;15675;52.870;-1.416;2023-03-13T08:08:56;97776.72;;;11.43;100.00
28448;BME280;15675;52.870;-1.416;2023-03-13T08:11:24;97788.88;;;11.42;100.00
28448;BME280;15675;52.870;-1.416;2023-03-13T08:13:51;97786.34;;;11.40;100.00
28448;BME280;15675;52.870;-1.416;2023-03-13T08:16:28;97776.13;;;11.37;100.00
28448;BME280;15675;52.870;-1.416;2023-03-13T08:18:55;97787.19;;;11.41;100.00
28448;BME280;15675;52.870;-1.416;2023-03-13T08:21:23;97773.16;;;11.26;100.00
28448;BME280;15675;52.870;-1.416;2023-03-13T08:23:54;97775.41;;;11.34;100.00
28448;BME280;15675;52.870;-1.416;2023-03-13T08:26:21;97792.13;;;11.47;100.00
28448;BME280;15675;52.870;-1.416;2023-03-13T08:28:51;97783.97;;;11.36;100.00
28448;BME280;15675;52.870;-1.416;2023-03-13T08:31:20;97770.22;;;11.53;100.00
28448;BME280;15675;52.870;-1.416;2023-03-13T08:33:46;97749.47;;;11.51;100.00
28448;BME280;15675;52.870;-1.416;2023-03-13T08:36:24;97783.00;;;11.75;100.00
28448;BME280;15675;52.870;-1.416;2023-03-13T08:38:51;97788.66;;;11.47;100.00
28448;BME280;15675;52.870;-1.416;2023-03-13T08:41:23;97790.47;;;11.26;100.00
28448;BME280;15675;52.870;-1.416;2023-03-13T08:43:51;97800.53;;;11.33;100.00
28448;BME280;15675;52.870;-1.416;2023-03-13T08:46:17;97805.59;;;11.17;100.00
28448;BME280;15675;52.870;-1.416;2023-03-13T08:48:42;97803.34;;;11.29;100.00
28448;BME280;15675;52.870;-1.416;2023-03-13T08:51:09;97812.06;;;11.07;100.00
28448;BME280;15675;52.870;-1.416;2023-03-13T08:53:36;97811.75;;;11.15;100.00
28448;BME280;15675;52.870;-1.416;2023-03-13T08:56:02;97817.78;;;11.15;100.00
28448;BME280;15675;52.870;-1.416;2023-03-13T08:58:29;97818.19;;;11.06;100.00
28448;BME280;15675;52.870;-1.416;2023-03-13T09:01:03;97818.84;;;11.30;100.00
28448;BME280;15675;52.870;-1.416;2023-03-13T09:03:29;97830.44;;;11.02;100.00
28448;BME280;15675;52.870;-1.416;2023-03-13T09:05:56;97822.94;;;10.96;100.00
28448;BME280;15675;52.870;-1.416;2023-03-13T09:08:22;97831.56;;;10.97;100.00
28448;BME280;15675;52.870;-1.416;2023-03-13T09:10:54;97838.59;;;10.95;100.00
28448;BME280;15675;52.870;-1.416;2023-03-13T09:13:20;97836.44;;;11.04;100.00
28448;BME280;15675;52.870;-1.416;2023-03-13T09:15:55;97841.34;;;10.90;100.00
28448;BME280;15675;52.870;-1.416;2023-03-13T09:18:21;97815.09;;;10.77;100.00
28448;BME280;15675;52.870;-1.416;2023-03-13T09:20:47;97826.22;;;11.00;100.00
28448;BME280;15675;52.870;-1.416;2023-03-13T09:23:12;97808.34;;;11.13;100.00
28448;BME280;15675;52.870;-1.416;2023-03-13T09:25:38;97804.25;;;11.28;100.00
28448;BME280;15675;52.870;-1.416;2023-03-13T09:28:03;97789.84;;;11.39;100.00
28448;BME280;15675;52.870;-1.416;2023-03-13T09:30:29;97787.97;;;11.24;100.00
28448;BME280;15675;52.870;-1.416;2023-03-13T09:32:54;97786.34;;;11.60;100.00
28448;BME280;15675;52.870;-1.416;2023-03-13T09:35:20;97749.22;;;11.38;100.00
28448;BME280;15675;52.870;-1.416;2023-03-13T09:37:45;97764.69;;;11.42;100.00
28448;BME280;15675;52.870;-1.416;2023-03-13T09:40:19;97778.63;;;11.39;100.00
28448;BME280;15675;52.870;-1.416;2023-03-13T09:42:55;97777.94;;;11.54;100.00
28448;BME280;15675;52.870;-1.416;2023-03-13T09:45:40;97782.13;;;11.57;100.00
28448;BME280;15675;52.870;-1.416;2023-03-13T09:48:13;97767.34;;;11.77;100.00
28448;BME280;15675;52.870;-1.416;2023-03-13T09:50:46;97767.91;;;11.64;100.00
28448;BME280;15675;52.870;-1.416;2023-03-13T09:53:23;97755.59;;;11.31;100.00
28448;BME280;15675;52.870;-1.416;2023-03-13T09:55:51;97757.97;;;11.55;100.00
28448;BME280;15675;52.870;-1.416;2023-03-13T09:58:22;97775.53;;;11.50;100.00
28448;BME280;15675;52.870;-1.416;2023-03-13T10:01:02;97764.88;;;11.56;100.00
28448;BME280;15675;52.870;-1.416;2023-03-13T10:06:15;97772.53;;;11.77;100.00
28448;BME280;15675;52.870;-1.416;2023-03-13T10:08:42;97781.25;;;11.95;100.00
28448;BME280;15675;52.870;-1.416;2023-03-13T10:11:24;97778.69;;;11.56;100.00
28448;BME280;15675;52.870;-1.416;2023-03-13T10:16:21;97789.28;;;11.88;100.00
28448;BME280;15675;52.870;-1.416;2023-03-13T10:18:53;97772.00;;;12.06;100.00
28448;BME280;15675;52.870;-1.416;2023-03-13T10:21:22;97784.84;;;12.09;100.00
28448;BME280;15675;52.870;-1.416;2023-03-13T10:23:53;97772.56;;;11.96;100.00
28448;BME280;15675;52.870;-1.416;2023-03-13T10:26:26;97774.09;;;12.17;100.00
28448;BME280;15675;52.870;-1.416;2023-03-13T10:28:54;97772.47;;;12.15;100.00
28448;BME280;15675;52.870;-1.416;2023-03-13T10:31:30;97778.66;;;12.12;100.00
28448;BME280;15675;52.870;-1.416;2023-03-13T10:34:11;97761.16;;;12.33;100.00
28448;BME280;15675;52.870;-1.416;2023-03-13T10:36:45;97782.66;;;12.19;100.00
28448;BME280;15675;52.870;-1.416;2023-03-13T10:39:16;97781.66;;;12.04;100.00
28448;BME280;15675;52.870;-1.416;2023-03-13T10:41:42;97781.03;;;11.99;100.00
28448;BME280;15675;52.870;-1.416;2023-03-13T10:44:19;97788.44;;;12.07;100.00
28448;BME280;15675;52.870;-1.416;2023-03-13T10:46:47;97789.28;;;11.88;100.00
28448;BME280;15675;52.870;-1.416;2023-03-13T10:49:21;97794.81;;;11.82;100.00
28448;BME280;15675;52.870;-1.416;2023-03-13T10:51:50;97805.84;;;11.87;100.00
28448;BME280;15675;52.870;-1.416;2023-03-13T10:54:32;97797.84;;;12.09;100.00
28448;BME280;15675;52.870;-1.416;2023-03-13T10:59:44;97796.78;;;12.14;100.00
28448;BME280;15675;52.870;-1.416;2023-03-13T11:04:51;97817.91;;;12.07;100.00
28448;BME280;15675;52.870;-1.416;2023-03-13T11:07:24;97812.09;;;11.83;100.00
28448;BME280;15675;52.870;-1.416;2023-03-13T11:12:32;97813.59;;;12.06;100.00
28448;BME280;15675;52.870;-1.416;2023-03-13T11:15:00;97819.81;;;11.85;100.00
28448;BME280;15675;52.870;-1.416;2023-03-13T11:20:11;97819.38;;;12.13;100.00
28448;BME280;15675;52.870;-1.416;2023-03-13T11:26:28;97816.09;;;12.27;100.00
28448;BME280;15675;52.870;-1.416;2023-03-13T11:29:12;97828.25;;;12.26;100.00
28448;BME280;15675;52.870;-1.416;2023-03-13T11:31:43;97808.72;;;12.00;100.00
28448;BME280;15675;52.870;-1.416;2023-03-13T11:34:23;97832.59;;;12.26;100.00
28448;BME280;15675;52.870;-1.416;2023-03-13T11:36:56;97829.63;;;12.34;100.00
28448;BME280;15675;52.870;-1.416;2023-03-13T11:47:52;97830.84;;;12.79;100.00
28448;BME280;15675;52.870;-1.416;2023-03-13T11:50:34;97816.13;;;12.78;100.00
28448;BME280;15675;52.870;-1.416;2023-03-13T12:01:07;97843.13;;;13.10;100.00
28448;BME280;15675;52.870;-1.416;2023-03-13T12:03:58;97830.94;;;12.77;100.00
28448;BME280;15675;52.870;-1.416;2023-03-13T12:06:37;97793.66;;;12.77;100.00
28448;BME280;15675;52.870;-1.416;2023-03-13T12:09:08;97829.81;;;12.99;100.00
28448;BME280;15675;52.870;-1.416;2023-03-13T12:11:42;97811.59;;;12.66;100.00
28448;BME280;15675;52.870;-1.416;2023-03-13T12:14:24;97822.53;;;13.06;100.00
28448;BME280;15675;52.870;-1.416;2023-03-13T12:16:57;97826.59;;;13.11;100.00
28448;BME280;15675;52.870;-1.416;2023-03-13T12:19:33;97790.03;;;12.80;100.00
28448;BME280;15675;52.870;-1.416;2023-03-13T12:22:11;97801.53;;;12.75;100.00
28448;BME280;15675;52.870;-1.416;2023-03-13T12:24:45;97838.13;;;12.90;100.00
28448;BME280;15675;52.870;-1.416;2023-03-13T12:27:18;97826.63;;;12.76;100.00
28448;BME280;15675;52.870;-1.416;2023-03-13T12:32:19;97792.63;;;12.80;100.00
28448;BME280;15675;52.870;-1.416;2023-03-13T12:37:44;97807.38;;;12.97;100.00
28448;BME280;15675;52.870;-1.416;2023-03-13T12:40:32;97806.66;;;13.10;100.00
28448;BME280;15675;52.870;-1.416;2023-03-13T12:43:18;97818.84;;;12.59;100.00
28448;BME280;15675;52.870;-1.416;2023-03-13T12:59:18;97804.72;;;12.81;100.00
28448;BME280;15675;52.870;-1.416;2023-03-13T13:01:51;97819.06;;;12.72;100.00
28448;BME280;15675;52.870;-1.416;2023-03-13T13:04:22;97819.13;;;12.18;100.00
28448;BME280;15675;52.870;-1.416;2023-03-13T13:06:56;97804.84;;;12.26;100.00
28448;BME280;15675;52.870;-1.416;2023-03-13T13:09:32;97812.00;;;12.04;100.00
28448;BME280;15675;52.870;-1.416;2023-03-13T13:12:21;97816.44;;;12.02;100.00
28448;BME280;15675;52.870;-1.416;2023-03-13T13:20:41;97786.47;;;11.95;100.00
28448;BME280;15675;52.870;-1.416;2023-03-13T13:23:43;97787.84;;;12.19;100.00
28448;BME280;15675;52.870;-1.416;2023-03-13T13:28:49;97751.53;;;12.18;100.00
28448;BME280;15675;52.870;-1.416;2023-03-13T13:36:53;97730.38;;;12.59;100.00
28448;BME280;15675;52.870;-1.416;2023-03-13T13:41:59;97693.31;;;12.71;100.00
28448;BME280;15675;52.870;-1.416;2023-03-13T13:44:28;97700.91;;;12.92;100.00
28448;BME280;15675;52.870;-1.416;2023-03-13T13:46:56;97691.91;;;12.82;100.00
28448;BME280;15675;52.870;-1.416;2023-03-13T13:49:31;97695.78;;;12.90;100.00
28448;BME280;15675;52.870;-1.416;2023-03-13T13:57:16;97661.59;;;12.97;100.00
28448;BME280;15675;52.870;-1.416;2023-03-13T14:02:56;97679.84;;;13.12;100.00
28448;BME280;15675;52.870;-1.416;2023-03-13T14:05:24;97690.91;;;13.00;100.00
28448;BME280;15675;52.870;-1.416;2023-03-13T14:08:03;97695.78;;;12.90;100.00
28448;BME280;15675;52.870;-1.416;2023-03-13T14:10:40;97698.13;;;13.11;100.00
28448;BME280;15675;52.870;-1.416;2023-03-13T14:13:15;97666.81;;;12.97;100.00
28448;BME280;15675;52.870;-1.416;2023-03-13T14:15:43;97698.00;;;13.14;100.00
28448;BME280;15675;52.870;-1.416;2023-03-13T14:18:14;97658.91;;;12.98;100.00